createdAt,value
2017-06-05T00:01:17.628Z,100941.97
2017-06-05T00:03:43.956Z,100938.50
2017-06-05T00:06:10.283Z,100946.43
2017-06-05T00:08:43.339Z,100945.77
2017-06-05T00:11:13.722Z,100941.36
2017-06-05T00:13:46.762Z,100936.62
2017-06-05T00:16:19.792Z,100929.55
2017-06-05T00:18:52.508Z,100927.05
2017-06-05T00:21:18.937Z,100940.11
2017-06-05T00:23:45.295Z,100928.67
2017-06-05T00:26:12.689Z,100927.61
2017-06-05T00:28:39.053Z,100923.67
2017-06-05T00:31:05.432Z,100918.53
2017-06-05T00:33:31.785Z,100917.07
2017-06-05T00:35:58.115Z,100908.58
2017-06-05T00:38:24.464Z,100914.68
2017-06-05T00:40:50.830Z,100911.13
2017-06-05T00:43:17.191Z,100913.05
2017-06-05T00:45:43.528Z,100911.48
2017-06-05T00:48:09.922Z,100904.09
2017-06-05T00:50:36.704Z,100915.03
2017-06-05T00:53:03.597Z,100911.77
2017-06-05T00:55:30.546Z,100911.77
2017-06-05T00:57:56.880Z,100908.98
2017-06-05T01:00:23.553Z,100910.36
2017-06-05T01:02:49.930Z,100901.78
2017-06-05T01:05:16.930Z,100908.06
2017-06-05T01:07:43.260Z,100915.38
2017-06-05T01:10:09.768Z,100910.95
2017-06-05T01:12:36.880Z,100903.38
2017-06-05T01:15:03.805Z,100908.52
2017-06-05T01:17:30.358Z,100905.08
2017-06-05T01:19:57.246Z,100900.42
2017-06-05T01:22:23.593Z,100903.75
2017-06-05T01:24:49.982Z,100905.05
2017-06-05T01:27:20.290Z,100906.44
2017-06-05T01:29:53.443Z,100904.05
2017-06-05T01:32:26.280Z,100897.33
2017-06-05T01:34:58.859Z,100897.23
2017-06-05T01:37:31.593Z,100888.69
2017-06-05T01:40:04.172Z,100894.43
2017-06-05T01:42:36.585Z,100897.98
2017-06-05T01:45:08.974Z,100900.24
2017-06-05T01:47:41.821Z,100907.70
2017-06-05T01:53:01.602Z,100902.25
2017-06-05T01:55:27.972Z,100901.25
2017-06-05T01:57:54.363Z,100904.63
2017-06-05T02:00:20.761Z,100902.97
2017-06-05T02:02:47.219Z,100902.77
2017-06-05T02:05:13.566Z,100895.41
2017-06-05T02:07:39.897Z,100899.10
2017-06-05T02:10:06.277Z,100899.19
2017-06-05T02:12:32.665Z,100898.31
2017-06-05T02:14:59.039Z,100901.01
2017-06-05T02:17:25.391Z,100899.70
2017-06-05T02:19:51.761Z,100894.30
2017-06-05T02:22:18.124Z,100898.29
2017-06-05T02:24:44.518Z,100898.95
2017-06-05T02:27:10.868Z,100895.50
2017-06-05T02:29:37.202Z,100896.14
2017-06-05T02:32:03.524Z,100894.72
2017-06-05T02:34:29.877Z,100892.32
2017-06-05T02:36:56.235Z,100893.60
2017-06-05T02:39:22.579Z,100895.19
2017-06-05T02:41:48.923Z,100895.17
2017-06-05T02:44:15.287Z,100888.83
2017-06-05T02:46:41.637Z,100892.96
2017-06-05T02:49:08.101Z,100890.05
2017-06-05T02:51:34.473Z,100887.44
2017-06-05T02:54:00.811Z,100885.80
2017-06-05T02:56:27.165Z,100888.86
2017-06-05T02:58:53.584Z,100882.06
2017-06-05T03:01:19.926Z,100884.58
2017-06-05T03:03:46.285Z,100881.88
2017-06-05T03:06:12.713Z,100887.17
2017-06-05T03:08:39.130Z,100885.19
2017-06-05T03:11:05.474Z,100879.74
2017-06-05T03:13:31.826Z,100878.59
2017-06-05T03:15:58.185Z,100880.42
2017-06-05T03:18:24.643Z,100884.14
2017-06-05T03:20:51.008Z,100884.83
2017-06-05T03:23:17.378Z,100881.99
2017-06-05T03:25:43.736Z,100881.20
2017-06-05T03:28:10.115Z,100883.67
2017-06-05T03:30:36.476Z,100881.42
2017-06-05T03:33:02.811Z,100882.44
2017-06-05T03:35:29.167Z,100882.49
2017-06-05T03:37:55.499Z,100881.77
2017-06-05T03:40:21.901Z,100876.20
2017-06-05T03:42:48.261Z,100874.41
2017-06-05T03:45:14.620Z,100871.30
2017-06-05T03:47:40.950Z,100877.37
2017-06-05T03:50:07.303Z,100869.80
2017-06-05T03:52:33.641Z,100867.73
2017-06-05T03:55:00.083Z,100868.44
2017-06-05T03:57:26.429Z,100871.70
2017-06-05T03:59:52.776Z,100870.63
2017-06-05T04:02:19.108Z,100870.80
2017-06-05T04:04:45.462Z,100876.59
2017-06-05T04:07:11.806Z,100871.80
2017-06-05T04:09:38.170Z,100869.29
2017-06-05T04:12:04.511Z,100868.98
2017-06-05T04:14:30.868Z,100876.80
2017-06-05T04:16:57.232Z,100880.13
2017-06-05T04:19:23.586Z,100868.95
2017-06-05T04:21:49.993Z,100877.17
2017-06-05T04:24:16.359Z,100872.25
2017-06-05T04:26:42.728Z,100871.44
2017-06-05T04:29:09.083Z,100878.61
2017-06-05T04:31:35.436Z,100876.34
2017-06-05T04:34:01.805Z,100876.42
2017-06-05T04:36:28.150Z,100881.56
2017-06-05T04:38:54.493Z,100876.20
2017-06-05T04:41:20.863Z,100878.23
2017-06-05T04:43:47.273Z,100876.53
2017-06-05T04:46:13.640Z,100882.34
2017-06-05T04:48:40.013Z,100880.32
2017-06-05T04:51:06.379Z,100883.30
2017-06-05T04:53:32.816Z,100880.45
2017-06-05T04:55:59.177Z,100882.41
2017-06-05T04:58:25.534Z,100885.16
2017-06-05T05:00:51.881Z,100879.38
2017-06-05T05:03:18.257Z,100886.30
2017-06-05T05:05:44.622Z,100881.51
2017-06-05T05:08:10.981Z,100883.03
2017-06-05T05:10:37.330Z,100874.27
2017-06-05T05:13:03.750Z,100884.44
2017-06-05T05:15:30.097Z,100877.09
2017-06-05T05:17:56.426Z,100873.56
2017-06-05T05:20:22.777Z,100871.98
2017-06-05T05:22:49.123Z,100872.72
2017-06-05T05:25:15.491Z,100878.08
2017-06-05T05:27:41.857Z,100875.23
2017-06-05T05:30:08.219Z,100876.16
2017-06-05T05:32:34.636Z,100866.86
2017-06-05T05:35:00.992Z,100859.70
2017-06-05T05:37:27.335Z,100864.13
2017-06-05T05:39:53.706Z,100864.31
2017-06-05T05:42:20.067Z,100870.95
2017-06-05T05:44:46.441Z,100860.39
2017-06-05T05:47:12.802Z,100863.57
2017-06-05T05:49:39.205Z,100865.09
2017-06-05T05:52:05.568Z,100870.92
2017-06-05T05:54:31.909Z,100859.07
2017-06-05T05:56:58.223Z,100855.67
2017-06-05T05:59:24.550Z,100850.87
2017-06-05T06:01:50.909Z,100853.72
2017-06-05T06:04:17.251Z,100847.44
2017-06-05T06:06:43.577Z,100848.41
2017-06-05T06:09:09.988Z,100848.36
2017-06-05T06:11:36.332Z,100852.77
2017-06-05T06:14:02.683Z,100843.05
2017-06-05T06:16:29.016Z,100849.28
2017-06-05T06:18:55.394Z,100845.78
2017-06-05T06:21:21.738Z,100851.73
2017-06-05T06:23:48.083Z,100847.28
2017-06-05T06:26:20.890Z,100847.59
2017-06-05T06:28:47.228Z,100850.61
2017-06-05T06:31:13.593Z,100853.13
2017-06-05T06:33:39.948Z,100852.05
2017-06-05T06:36:06.313Z,100848.79
2017-06-05T06:38:32.667Z,100845.66
2017-06-05T06:40:59.049Z,100850.08
2017-06-05T06:43:25.813Z,100848.05
2017-06-05T06:45:52.162Z,100847.55
2017-06-05T06:48:18.513Z,100845.27
2017-06-05T06:50:44.899Z,100847.78
2017-06-05T06:53:11.260Z,100838.41
2017-06-05T06:55:37.597Z,100835.23
2017-06-05T06:58:03.926Z,100837.42
2017-06-05T07:00:30.285Z,100838.62
2017-06-05T07:02:56.646Z,100836.51
2017-06-05T07:05:23.010Z,100825.37
2017-06-05T07:07:49.411Z,100821.65
2017-06-05T07:10:15.786Z,100823.27
2017-06-05T07:12:42.171Z,100827.55
2017-06-05T07:15:08.515Z,100825.78
2017-06-05T07:17:34.882Z,100821.17
2017-06-05T07:20:01.257Z,100817.84
2017-06-05T07:22:27.595Z,100819.96
2017-06-05T07:24:54.006Z,100819.48
2017-06-05T07:27:20.367Z,100820.95
2017-06-05T07:29:46.789Z,100817.34
2017-06-05T07:32:13.149Z,100812.94
2017-06-05T07:34:39.516Z,100812.50
2017-06-05T07:37:05.873Z,100816.64
2017-06-05T07:39:32.209Z,100817.00
2017-06-05T07:41:58.694Z,100813.77
2017-06-05T07:44:25.036Z,100803.59
2017-06-05T07:46:51.386Z,100809.04
2017-06-05T07:49:17.842Z,100803.46
2017-06-05T07:51:44.180Z,100802.02
2017-06-05T07:54:10.532Z,100805.53
2017-06-05T07:56:36.871Z,100802.87
2017-06-05T07:59:03.270Z,100805.52
2017-06-05T08:01:29.752Z,100813.17
2017-06-05T08:03:56.153Z,100803.29
2017-06-05T08:06:22.482Z,100809.48
2017-06-05T08:08:48.866Z,100803.33
2017-06-05T08:11:15.241Z,100799.91
2017-06-05T08:13:41.591Z,100786.27
2017-06-05T08:16:07.929Z,100788.53
2017-06-05T08:18:34.275Z,100783.72
2017-06-05T08:21:00.614Z,100781.22
2017-06-05T08:23:26.956Z,100772.48
2017-06-05T08:25:53.303Z,100775.81
2017-06-05T08:28:19.651Z,100771.92
2017-06-05T08:30:46.108Z,100772.84
2017-06-05T08:33:12.482Z,100771.19
2017-06-05T08:35:38.891Z,100769.45
2017-06-05T08:38:05.260Z,100766.36
2017-06-05T08:40:31.852Z,100767.77
2017-06-05T08:42:58.236Z,100769.13
2017-06-05T08:45:25.355Z,100769.32
2017-06-05T08:47:51.724Z,100759.17
2017-06-05T08:50:18.069Z,100748.77
2017-06-05T08:52:44.402Z,100749.19
2017-06-05T08:55:10.775Z,100747.88
2017-06-05T08:57:37.211Z,100743.98
2017-06-05T09:00:03.569Z,100740.33
2017-06-05T09:02:29.929Z,100724.84
2017-06-05T09:04:56.413Z,100728.30
2017-06-05T09:07:22.799Z,100733.31
2017-06-05T09:09:49.151Z,100726.69
2017-06-05T09:12:15.518Z,100727.24
2017-06-05T09:14:42.018Z,100718.03
2017-06-05T09:17:08.353Z,100720.24
2017-06-05T09:19:34.720Z,100720.16
2017-06-05T09:22:07.385Z,100711.98
2017-06-05T09:24:33.776Z,100712.45
2017-06-05T09:27:06.814Z,100707.47
2017-06-05T09:32:26.383Z,100708.15
2017-06-05T09:34:52.758Z,100696.95
2017-06-05T09:37:19.161Z,100693.06
2017-06-05T09:39:45.509Z,100689.79
2017-06-05T09:42:11.866Z,100695.36
2017-06-05T09:44:38.309Z,100690.03
2017-06-05T09:47:04.666Z,100685.03
2017-06-05T09:49:31.031Z,100682.16
2017-06-05T09:51:57.378Z,100672.05
2017-06-05T09:54:30.367Z,100668.63
2017-06-05T09:57:02.855Z,100673.42
2017-06-05T09:59:35.438Z,100667.59
2017-06-05T10:02:07.692Z,100669.91
2017-06-05T10:04:40.048Z,100672.02
2017-06-05T10:07:06.383Z,100670.25
2017-06-05T10:09:32.710Z,100666.52
2017-06-05T10:11:59.066Z,100668.21
2017-06-05T10:14:25.411Z,100665.95
2017-06-05T10:16:51.766Z,100662.42
2017-06-05T10:19:18.124Z,100655.84
2017-06-05T10:21:44.450Z,100659.38
2017-06-05T10:24:10.823Z,100646.66
2017-06-05T10:26:43.449Z,100644.75
2017-06-05T10:29:09.792Z,100648.80
2017-06-05T10:31:42.927Z,100648.17
2017-06-05T10:34:09.309Z,100643.41
2017-06-05T10:36:35.679Z,100641.88
2017-06-05T10:39:02.086Z,100632.48
2017-06-05T10:41:28.409Z,100638.46
2017-06-05T10:43:54.734Z,100634.16
2017-06-05T10:46:21.117Z,100633.71
2017-06-05T10:48:47.459Z,100622.67
2017-06-05T10:51:13.811Z,100620.30
2017-06-05T10:53:40.165Z,100612.20
2017-06-05T10:56:06.508Z,100614.18
2017-06-05T10:58:32.888Z,100616.52
2017-06-05T11:00:59.219Z,100613.98
2017-06-05T11:03:25.577Z,100612.33
2017-06-05T11:05:51.981Z,100626.38
2017-06-05T11:08:42.288Z,100613.91
2017-06-05T11:11:08.619Z,100621.14
2017-06-05T11:13:35.009Z,100608.48
2017-06-05T11:16:01.360Z,100602.33
2017-06-05T11:18:27.794Z,100606.67
2017-06-05T11:20:54.153Z,100601.36
2017-06-05T11:23:20.591Z,100600.15
2017-06-05T11:25:53.263Z,100587.59
2017-06-05T11:28:26.190Z,100581.52
2017-06-05T11:30:52.531Z,100585.32
2017-06-05T11:33:18.985Z,100582.63
2017-06-05T11:35:51.202Z,100577.42
2017-06-05T11:38:17.561Z,100579.33
2017-06-05T11:40:44.929Z,100579.06
2017-06-05T11:43:11.303Z,100578.61
2017-06-05T11:45:37.662Z,100565.97
2017-06-05T11:48:04.114Z,100563.02
2017-06-05T11:50:30.525Z,100563.34
2017-06-05T11:52:56.890Z,100560.77
2017-06-05T11:55:23.279Z,100560.72
2017-06-05T11:57:49.685Z,100557.94
2017-06-05T12:00:16.087Z,100553.95
2017-06-05T12:02:42.485Z,100558.59
2017-06-05T12:05:08.979Z,100549.09
2017-06-05T12:07:35.363Z,100561.34
2017-06-05T12:10:01.772Z,100556.52
2017-06-05T12:12:28.974Z,100544.34
2017-06-05T12:14:55.357Z,100539.14
2017-06-05T12:17:21.752Z,100549.45
2017-06-05T12:19:48.145Z,100544.23
2017-06-05T12:22:14.499Z,100549.09
2017-06-05T12:24:44.604Z,100544.12
2017-06-05T12:27:14.895Z,100540.80
2017-06-05T12:29:41.288Z,100537.95
2017-06-05T12:32:07.676Z,100531.47
2017-06-05T12:34:34.054Z,100532.48
2017-06-05T12:37:07.141Z,100533.94
2017-06-05T12:39:33.490Z,100533.03
2017-06-05T12:41:59.829Z,100521.30
2017-06-05T12:44:26.284Z,100520.16
2017-06-05T12:46:52.668Z,100529.23
2017-06-05T12:49:26.240Z,100526.10
2017-06-05T12:51:52.777Z,100525.48
2017-06-05T12:54:26.136Z,100524.70
2017-06-05T12:56:59.320Z,100517.77
2017-06-05T12:59:29.879Z,100524.00
2017-06-05T13:02:00.518Z,100510.55
2017-06-05T13:04:33.185Z,100513.94
2017-06-05T13:07:05.818Z,100512.64
2017-06-05T13:09:38.465Z,100507.18
2017-06-05T13:12:04.826Z,100496.37
2017-06-05T13:14:31.216Z,100507.77
2017-06-05T13:17:01.632Z,100502.20
2017-06-05T13:19:28.042Z,100503.56
2017-06-05T13:21:54.423Z,100498.59
2017-06-05T13:24:27.520Z,100500.22
2017-06-05T13:27:00.863Z,100489.92
2017-06-05T13:29:27.237Z,100479.84
2017-06-05T13:31:59.527Z,100483.17
2017-06-05T13:34:32.330Z,100477.87
2017-06-05T13:37:15.415Z,100471.75
2017-06-05T13:39:41.778Z,100465.93
2017-06-05T13:42:09.254Z,100459.68
2017-06-05T13:44:35.691Z,100460.16
2017-06-05T13:47:02.635Z,100459.59
2017-06-05T13:49:36.115Z,100460.09
2017-06-05T13:52:09.011Z,100455.96
2017-06-05T13:54:41.818Z,100443.30
2017-06-05T13:57:08.175Z,100434.78
2017-06-05T13:59:34.549Z,100438.58
2017-06-05T14:02:00.918Z,100432.33
2017-06-05T14:04:27.289Z,100429.02
2017-06-05T14:07:01.573Z,100420.45
2017-06-05T14:09:31.384Z,100426.43
2017-06-05T14:12:03.784Z,100427.63
2017-06-05T14:14:30.160Z,100422.86
2017-06-05T14:16:56.521Z,100414.05
2017-06-05T14:19:29.576Z,100411.14
2017-06-05T14:22:02.419Z,100411.92
2017-06-05T14:24:35.147Z,100413.91
2017-06-05T14:27:09.338Z,100406.53
2017-06-05T14:29:42.539Z,100400.91
2017-06-05T14:32:15.414Z,100394.64
2017-06-05T14:34:47.956Z,100393.70
2017-06-05T14:37:29.879Z,100391.32
2017-06-05T14:40:03.660Z,100384.18
2017-06-05T14:42:36.702Z,100383.82
2017-06-05T14:45:09.287Z,100379.92
2017-06-05T14:47:35.646Z,100385.28
2017-06-05T14:50:08.149Z,100376.25
2017-06-05T14:52:38.318Z,100377.33
2017-06-05T14:55:04.681Z,100373.68
2017-06-05T14:57:31.040Z,100368.08
2017-06-05T14:59:57.411Z,100359.16
2017-06-05T15:02:23.810Z,100360.30
2017-06-05T15:04:50.237Z,100361.16
2017-06-05T15:07:16.602Z,100359.92
2017-06-05T15:09:42.977Z,100360.06
2017-06-05T15:12:09.426Z,100354.06
2017-06-05T15:14:42.315Z,100354.36
2017-06-05T15:17:08.690Z,100345.68
2017-06-05T15:19:35.117Z,100347.18
2017-06-05T15:22:01.577Z,100346.13
2017-06-05T15:24:27.916Z,100348.17
2017-06-05T15:26:54.279Z,100341.47
2017-06-05T15:29:20.681Z,100337.22
2017-06-05T15:31:47.026Z,100341.84
2017-06-05T15:34:13.393Z,100339.43
2017-06-05T15:36:39.755Z,100342.55
2017-06-05T15:39:06.136Z,100337.05
2017-06-05T15:41:32.507Z,100329.55
2017-06-05T15:43:58.882Z,100320.41
2017-06-05T15:46:25.264Z,100318.19
2017-06-05T15:48:51.699Z,100321.39
2017-06-05T15:51:18.124Z,100312.33
2017-06-05T15:53:44.502Z,100301.48
2017-06-05T15:56:10.879Z,100306.67
2017-06-05T15:58:37.266Z,100303.47
2017-06-05T16:01:03.608Z,100300.46
2017-06-05T16:03:30.127Z,100305.95
2017-06-05T16:05:56.487Z,100299.19
2017-06-05T16:08:22.844Z,100290.69
2017-06-05T16:10:49.190Z,100288.97
2017-06-05T16:13:15.561Z,100287.26
2017-06-05T16:15:41.947Z,100284.98
2017-06-05T16:18:08.322Z,100276.77
2017-06-05T16:20:34.696Z,100273.88
2017-06-05T16:23:01.069Z,100274.53
2017-06-05T16:25:27.499Z,100269.33
2017-06-05T16:27:53.877Z,100263.22
2017-06-05T16:30:20.271Z,100261.02
2017-06-05T16:32:46.663Z,100265.02
2017-06-05T16:35:13.002Z,100261.33
2017-06-05T16:37:39.352Z,100262.26
2017-06-05T16:40:05.722Z,100254.51
2017-06-05T16:42:32.187Z,100253.19
2017-06-05T16:44:58.552Z,100251.33
2017-06-05T16:47:24.924Z,100252.83
2017-06-05T16:49:51.293Z,100248.47
2017-06-05T16:52:17.784Z,100240.19
2017-06-05T16:54:44.128Z,100236.39
2017-06-05T16:57:10.496Z,100238.48
2017-06-05T16:59:36.874Z,100232.02
2017-06-05T17:02:03.253Z,100232.64
2017-06-05T17:04:29.605Z,100235.28
2017-06-05T17:06:55.967Z,100226.77
2017-06-05T17:09:22.339Z,100225.52
2017-06-05T17:11:48.710Z,100222.67
2017-06-05T17:14:15.287Z,100225.09
2017-06-05T17:16:41.669Z,100219.10
2017-06-05T17:19:08.834Z,100217.84
2017-06-05T17:21:35.194Z,100214.63
2017-06-05T17:24:01.564Z,100218.45
2017-06-05T17:26:28.070Z,100215.70
2017-06-05T17:28:54.446Z,100205.52
2017-06-05T17:31:20.804Z,100203.86
2017-06-05T17:33:47.171Z,100202.66
2017-06-05T17:36:13.615Z,100200.33
2017-06-05T17:38:39.963Z,100194.11
2017-06-05T17:41:06.329Z,100189.79
2017-06-05T17:43:32.682Z,100192.44
2017-06-05T17:45:59.086Z,100193.28
2017-06-05T17:48:25.497Z,100191.25
2017-06-05T17:50:51.886Z,100187.91
2017-06-05T17:53:18.296Z,100191.75
2017-06-05T17:55:44.734Z,100190.59
2017-06-05T17:58:11.095Z,100186.11
2017-06-05T18:00:37.465Z,100183.64
2017-06-05T18:03:03.863Z,100185.95
2017-06-05T18:05:30.249Z,100188.02
2017-06-05T18:07:56.618Z,100177.70
2017-06-05T18:10:22.976Z,100177.62
2017-06-05T18:12:49.448Z,100177.97
2017-06-05T18:15:15.850Z,100175.80
2017-06-05T18:17:42.197Z,100174.98
2017-06-05T18:20:08.523Z,100173.42
2017-06-05T18:22:34.886Z,100176.97
2017-06-05T18:25:01.249Z,100171.53
2017-06-05T18:27:28.266Z,100160.89
2017-06-05T18:29:56.030Z,100163.03
2017-06-05T18:32:22.465Z,100159.09
2017-06-05T18:34:49.503Z,100154.77
2017-06-05T18:37:16.508Z,100153.63
2017-06-05T18:39:42.853Z,100147.63
2017-06-05T18:42:09.373Z,100143.70
2017-06-05T18:44:35.873Z,100141.70
2017-06-05T18:47:02.796Z,100145.31
2017-06-05T18:49:29.488Z,100142.67
2017-06-05T18:51:56.467Z,100142.98
2017-06-05T18:54:23.263Z,100145.11
2017-06-05T18:56:49.741Z,100141.33
2017-06-05T18:59:16.235Z,100146.11
2017-06-05T19:01:42.775Z,100139.48
2017-06-05T19:04:09.558Z,100144.91
2017-06-05T19:06:36.152Z,100143.77
2017-06-05T19:09:02.640Z,100136.54
2017-06-05T19:11:29.334Z,100135.46
2017-06-05T19:13:56.665Z,100128.16
2017-06-05T19:16:23.360Z,100123.32
2017-06-05T19:18:49.782Z,100128.53
2017-06-05T19:21:16.198Z,100131.45
2017-06-05T19:23:42.584Z,100125.92
2017-06-05T19:26:09.148Z,100124.03
2017-06-05T19:28:35.566Z,100123.66
2017-06-05T19:31:01.951Z,100121.34
2017-06-05T19:33:28.355Z,100120.27
2017-06-05T19:35:54.711Z,100120.61
2017-06-05T19:38:21.190Z,100114.55
2017-06-05T19:40:47.560Z,100119.85
2017-06-05T19:43:13.945Z,100117.62
2017-06-05T19:45:40.337Z,100109.34
2017-06-05T19:48:06.774Z,100109.89
2017-06-05T19:50:33.132Z,100109.33
2017-06-05T19:52:59.505Z,100103.78
2017-06-05T19:55:25.855Z,100104.13
2017-06-05T19:57:52.626Z,100103.55
2017-06-05T20:00:19.321Z,100107.53
2017-06-05T20:02:47.118Z,100106.06
2017-06-05T20:05:13.575Z,100101.66
2017-06-05T20:07:39.947Z,100094.25
2017-06-05T20:10:06.374Z,100105.50
2017-06-05T20:12:32.720Z,100100.29
2017-06-05T20:14:59.176Z,100097.62
2017-06-05T20:17:25.530Z,100097.59
2017-06-05T20:19:52.000Z,100092.07
2017-06-05T20:22:18.948Z,100093.33
2017-06-05T20:24:45.339Z,100097.22
2017-06-05T20:27:11.717Z,100090.25
2017-06-05T20:29:38.446Z,100079.69
2017-06-05T20:32:04.871Z,100080.87
2017-06-05T20:34:31.373Z,100083.95
2017-06-05T20:36:57.965Z,100077.86
2017-06-05T20:39:24.320Z,100071.38
2017-06-05T20:41:50.724Z,100067.15
2017-06-05T20:55:12.524Z,100047.93
2017-06-05T20:57:38.870Z,100051.72
2017-06-05T21:00:05.243Z,100050.53
2017-06-05T21:02:31.716Z,100045.00
2017-06-05T21:04:58.062Z,100046.03
2017-06-05T21:07:24.435Z,100038.98
2017-06-05T21:09:50.803Z,100039.86
2017-06-05T21:12:17.247Z,100035.30
2017-06-05T21:14:43.595Z,100030.16
2017-06-05T21:17:09.929Z,100032.09
2017-06-05T21:19:36.360Z,100022.39
2017-06-05T21:22:02.730Z,100025.52
2017-06-05T21:24:29.086Z,100023.20
2017-06-05T21:26:55.442Z,100013.68
2017-06-05T21:29:21.840Z,100015.02
2017-06-05T21:31:48.289Z,100007.47
2017-06-05T21:34:14.629Z,100008.20
2017-06-05T21:36:40.993Z,100004.44
2017-06-05T21:39:07.457Z,99994.02
2017-06-05T21:41:33.869Z,99986.66
2017-06-05T21:44:00.227Z,99989.18
2017-06-05T21:46:26.564Z,99984.16
2017-06-05T21:48:53.230Z,99986.46
2017-06-05T21:51:19.586Z,99982.00
2017-06-05T21:53:45.945Z,99978.96
2017-06-05T21:56:12.279Z,99978.23
2017-06-05T21:58:38.617Z,99972.68
2017-06-05T22:01:04.974Z,99966.09
2017-06-05T22:03:31.335Z,99966.23
2017-06-05T22:05:57.694Z,99955.50
2017-06-05T22:08:24.139Z,99955.56
2017-06-05T22:10:50.593Z,99954.31
2017-06-05T22:13:16.957Z,99946.20
2017-06-05T22:15:43.322Z,99945.53
2017-06-05T22:18:09.731Z,99941.64
2017-06-05T22:20:36.072Z,99940.22
2017-06-05T22:23:03.471Z,99935.25
2017-06-05T22:25:32.595Z,99929.31
2017-06-05T22:28:02.556Z,99931.17
2017-06-05T22:30:29.128Z,99923.47
2017-06-05T22:32:55.500Z,99918.88
2017-06-05T22:35:22.340Z,99921.28
2017-06-05T22:37:49.267Z,99916.81
2017-06-05T22:40:15.620Z,99914.95
2017-06-05T22:42:41.969Z,99915.11
2017-06-05T22:45:08.297Z,99901.39
2017-06-05T22:47:34.657Z,99897.87
2017-06-05T22:50:00.996Z,99893.56
2017-06-05T22:52:27.336Z,99895.86
2017-06-05T22:54:53.716Z,99893.41
2017-06-05T22:57:20.085Z,99881.23
2017-06-05T22:59:46.415Z,99884.25
2017-06-05T23:02:12.744Z,99878.91
2017-06-05T23:04:39.079Z,99884.06
2017-06-05T23:07:05.511Z,99878.87
2017-06-05T23:09:31.839Z,99878.83
2017-06-05T23:11:58.194Z,99872.84
2017-06-05T23:14:24.538Z,99867.71
2017-06-05T23:16:50.943Z,99862.81
2017-06-05T23:19:17.280Z,99858.06
2017-06-05T23:21:43.626Z,99856.64
2017-06-05T23:24:09.964Z,99851.74
2017-06-05T23:26:36.341Z,99847.30
2017-06-05T23:29:02.687Z,99856.62
2017-06-05T23:31:29.016Z,99844.43
2017-06-05T23:33:55.328Z,99841.53
2017-06-05T23:36:21.750Z,99832.34
2017-06-05T23:38:48.108Z,99835.91
2017-06-05T23:41:14.819Z,99833.81
2017-06-05T23:43:41.206Z,99830.88
2017-06-05T23:46:07.554Z,99816.78
2017-06-05T23:48:33.890Z,99821.20
2017-06-05T23:51:00.715Z,99817.22
2017-06-05T23:53:27.274Z,99822.08
2017-06-05T23:55:54.574Z,99810.79
2017-06-05T23:58:20.961Z,99811.45
